ESOK/KSD METAR and TAF weather

Enter ICAO airport designator
Station Type Date Time Source
ESOK METAR 2020/05/29 18:50 UTC NOAA

ESOK 291850Z AUTO 22006KT 9999 NCD 17/06 Q1028


Station Type Date Time Source
ESOK Decoded METAR 2020/05/29 18:50 UTC NOAA

Karlstad , Sweden (ESOK) 59-26-41N 013-20-15E
May 29, 2020 - 02:50 PM EDT / 2020.05.29 1850 UTC
Wind: from the SW (220 degrees) at 7 MPH (6 KT):0
Visibility: greater than 7 mile(s):0
Temperature: 62 F (17 C)
Dew Point: 42 F (6 C)
Relative Humidity: 48%
Pressure (altimeter): 30.36 in. Hg (1028 hPa)
ob: ESOK 291850Z AUTO 22006KT 9999 NCD 17/06 Q1028
cycle: 19

Station Type Date Time Source
ESOK TAF 2017/05/22 06:33 UTC NOAA

TAF ESOK 220530Z 2206/2224 28006KT CAVOK

Example: see airport list